createdAt,value
2018-05-27T00:00:58.786Z,13.60
2018-05-27T00:03:26.605Z,13.40
2018-05-27T00:05:54.280Z,14.33
2018-05-27T00:08:21.787Z,14.23
2018-05-27T00:10:50.282Z,14.60
2018-05-27T00:13:18.730Z,15.90
2018-05-27T00:15:46.519Z,14.27
2018-05-27T00:18:14.187Z,14.25
2018-05-27T00:20:43.927Z,14.82
2018-05-27T00:23:11.689Z,14.80
2018-05-27T00:25:39.264Z,15.90
2018-05-27T00:28:07.512Z,14.30
2018-05-27T00:30:35.139Z,14.10
2018-05-27T00:33:02.858Z,14.57
2018-05-27T00:35:30.408Z,14.10
2018-05-27T00:37:58.010Z,14.70
2018-05-27T00:40:26.497Z,14.90
2018-05-27T00:42:55.284Z,14.98
2018-05-27T00:45:22.883Z,15.70
2018-05-27T00:47:51.284Z,15.00
2018-05-27T00:50:20.001Z,15.80
2018-05-27T00:52:47.552Z,15.07
2018-05-27T00:55:15.168Z,14.65
2018-05-27T00:57:43.613Z,15.60
2018-05-27T01:00:11.189Z,15.50
2018-05-27T01:02:38.937Z,15.68
2018-05-27T01:05:06.720Z,15.10
2018-05-27T01:07:34.339Z,16.27
2018-05-27T01:10:01.927Z,16.42
2018-05-27T01:12:29.555Z,16.20
2018-05-27T01:14:57.218Z,16.30
2018-05-27T01:17:24.880Z,15.50
2018-05-27T01:19:52.571Z,15.68
2018-05-27T01:22:20.302Z,15.75
2018-05-27T01:24:48.566Z,14.90
2018-05-27T01:27:16.779Z,15.07
2018-05-27T01:29:45.244Z,16.55
2018-05-27T01:32:12.829Z,15.90
2018-05-27T01:34:40.570Z,14.93
2018-05-27T01:37:08.159Z,16.48
2018-05-27T01:39:35.909Z,15.93
2018-05-27T01:42:03.533Z,17.23
2018-05-27T01:44:31.342Z,17.02
2018-05-27T01:46:58.866Z,16.40
2018-05-27T01:49:26.389Z,17.90
2018-05-27T01:51:54.776Z,17.23
2018-05-27T01:54:22.392Z,17.60
2018-05-27T01:56:49.987Z,17.25
2018-05-27T01:59:17.547Z,17.58
2018-05-27T02:01:45.308Z,17.37
2018-05-27T02:04:13.792Z,17.08
2018-05-27T02:06:41.327Z,17.70
2018-05-27T02:09:08.933Z,18.90
2018-05-27T02:11:37.234Z,19.02
2018-05-27T02:14:04.889Z,18.50
2018-05-27T02:16:32.434Z,17.20
2018-05-27T02:18:59.979Z,17.37
2018-05-27T02:21:27.546Z,19.25
2018-05-27T02:23:55.081Z,19.50
2018-05-27T02:26:22.631Z,18.25
2018-05-27T02:28:50.193Z,18.95
2018-05-27T02:31:17.832Z,18.80
2018-05-27T02:33:45.350Z,20.00
2018-05-27T02:36:12.877Z,17.70
2018-05-27T02:38:40.403Z,19.10
2018-05-27T02:41:08.058Z,19.12
2018-05-27T02:43:35.577Z,19.20
2018-05-27T02:46:03.176Z,18.70
2018-05-27T02:48:30.730Z,18.37
2018-05-27T02:50:58.275Z,18.05
2018-05-27T02:53:25.833Z,19.77
2018-05-27T02:55:53.488Z,19.40
2018-05-27T02:58:21.053Z,18.95
2018-05-27T03:00:48.748Z,19.62
2018-05-27T03:03:18.384Z,18.62
2018-05-27T03:05:46.032Z,18.50
2018-05-27T03:08:13.630Z,19.37
2018-05-27T03:10:41.193Z,19.08
2018-05-27T03:13:08.895Z,18.35
2018-05-27T03:15:36.409Z,19.55
2018-05-27T03:18:03.989Z,19.40
2018-05-27T03:20:31.571Z,18.70
2018-05-27T03:22:59.851Z,18.90
2018-05-27T03:25:28.145Z,20.88
2018-05-27T03:27:55.779Z,19.53
2018-05-27T03:30:23.373Z,19.10
2018-05-27T03:32:51.008Z,19.45
2018-05-27T03:35:18.584Z,19.20
2018-05-27T03:37:46.146Z,19.17
2018-05-27T03:40:13.681Z,18.50
2018-05-27T03:42:41.212Z,18.92
2018-05-27T03:45:08.916Z,19.65
2018-05-27T03:47:36.540Z,20.17
2018-05-27T03:50:04.140Z,19.67
2018-05-27T03:52:31.866Z,21.08
2018-05-27T03:54:59.438Z,21.10
2018-05-27T03:57:27.043Z,20.88
2018-05-27T03:59:54.614Z,20.37
2018-05-27T04:02:22.288Z,21.12
2018-05-27T04:05:01.814Z,21.40
2018-05-27T04:07:41.193Z,22.02
2018-05-27T04:10:08.796Z,23.42
2018-05-27T04:12:36.412Z,21.87
2018-05-27T04:15:03.986Z,21.62
2018-05-27T04:17:31.609Z,23.25
2018-05-27T04:19:59.278Z,24.33
2018-05-27T04:22:26.854Z,22.35
2018-05-27T04:24:54.491Z,23.87
2018-05-27T04:27:22.028Z,21.97
2018-05-27T04:29:50.319Z,23.48
2018-05-27T04:32:17.895Z,22.87
2018-05-27T04:34:45.441Z,23.92
2018-05-27T04:37:12.954Z,23.62
2018-05-27T04:39:40.490Z,22.50
2018-05-27T04:42:08.038Z,21.98
2018-05-27T04:44:35.799Z,22.13
2018-05-27T04:47:03.360Z,23.33
2018-05-27T04:49:30.881Z,23.07
2018-05-27T04:51:58.447Z,22.10
2018-05-27T04:54:26.821Z,23.20
2018-05-27T04:56:54.388Z,22.05
2018-05-27T04:59:22.769Z,20.50
2018-05-27T05:01:50.462Z,21.73
2018-05-27T05:04:17.972Z,22.60
2018-05-27T05:06:46.405Z,21.43
2018-05-27T05:09:13.987Z,22.62
2018-05-27T05:11:42.561Z,21.98
2018-05-27T05:14:10.111Z,23.02
2018-05-27T05:16:37.709Z,23.25
2018-05-27T05:19:05.320Z,22.75
2018-05-27T05:21:32.900Z,23.30
2018-05-27T05:24:00.443Z,23.67
2018-05-27T05:26:28.113Z,23.40
2018-05-27T05:28:55.793Z,23.48
2018-05-27T05:31:23.404Z,23.05
2018-05-27T05:33:50.982Z,22.85
2018-05-27T05:36:18.547Z,24.57
2018-05-27T05:38:46.053Z,25.15
2018-05-27T05:41:13.687Z,23.98
2018-05-27T05:43:41.318Z,24.65
2018-05-27T05:46:08.811Z,26.08
2018-05-27T05:48:36.352Z,26.27
2018-05-27T05:51:03.931Z,23.20
2018-05-27T05:53:31.555Z,24.05
2018-05-27T05:55:59.122Z,23.85
2018-05-27T05:58:26.650Z,25.37
2018-05-27T06:00:54.261Z,25.30
2018-05-27T06:03:21.776Z,23.90
2018-05-27T06:05:49.320Z,21.65
2018-05-27T06:08:16.909Z,21.97
2018-05-27T06:10:44.473Z,21.50
2018-05-27T06:13:12.826Z,20.10
2018-05-27T06:15:40.453Z,21.65
2018-05-27T06:18:07.984Z,22.10
2018-05-27T06:20:35.606Z,21.62
2018-05-27T06:23:03.392Z,22.70
2018-05-27T06:25:31.728Z,21.30
2018-05-27T06:27:59.339Z,21.67
2018-05-27T06:30:29.183Z,25.62
2018-05-27T06:32:56.707Z,21.75
2018-05-27T06:35:25.060Z,21.45
2018-05-27T06:37:52.785Z,23.10
2018-05-27T06:40:20.402Z,21.57
2018-05-27T06:42:48.030Z,19.87
2018-05-27T06:45:15.603Z,20.92
2018-05-27T06:47:43.437Z,21.00
2018-05-27T06:50:10.969Z,18.90
2018-05-27T06:52:38.546Z,20.12
2018-05-27T06:55:06.104Z,19.30
2018-05-27T06:57:33.713Z,18.98
2018-05-27T07:00:02.092Z,21.10
2018-05-27T07:02:29.759Z,21.27
2018-05-27T07:04:57.311Z,19.30
2018-05-27T07:07:25.630Z,19.48
2018-05-27T07:09:53.979Z,18.80
2018-05-27T07:12:21.518Z,19.27
2018-05-27T07:14:49.056Z,19.62
2018-05-27T07:17:18.459Z,18.65
2018-05-27T07:19:46.018Z,18.62
2018-05-27T07:22:13.604Z,19.97
2018-05-27T07:24:41.345Z,18.30
2018-05-27T07:27:08.869Z,18.60
2018-05-27T07:29:36.447Z,18.73
2018-05-27T07:32:04.893Z,18.60
2018-05-27T07:34:32.579Z,18.35
2018-05-27T07:37:00.115Z,17.35
2018-05-27T07:39:27.626Z,16.40
2018-05-27T07:41:55.146Z,16.27
2018-05-27T07:44:25.524Z,16.05
2018-05-27T07:46:53.173Z,16.25
2018-05-27T07:49:20.797Z,15.10
2018-05-27T07:51:48.376Z,16.33
2018-05-27T07:54:15.905Z,15.70
2018-05-27T07:56:43.478Z,15.75
2018-05-27T07:59:11.127Z,15.18
2018-05-27T08:01:39.500Z,13.98
2018-05-27T08:04:07.033Z,15.80
2018-05-27T08:06:34.617Z,14.82
2018-05-27T08:09:02.253Z,20.40
2018-05-27T08:11:29.779Z,15.25
2018-05-27T08:13:57.370Z,15.15
2018-05-27T08:16:24.966Z,15.25
2018-05-27T08:18:52.552Z,15.27
2018-05-27T08:21:20.865Z,18.55
2018-05-27T08:23:48.630Z,14.20
2018-05-27T08:26:16.262Z,14.90
2018-05-27T08:28:43.829Z,14.02
2018-05-27T08:31:12.195Z,13.80
2018-05-27T08:33:42.206Z,14.15
2018-05-27T08:36:11.379Z,14.90
2018-05-27T08:38:39.049Z,14.57
2018-05-27T08:41:06.732Z,13.25
2018-05-27T08:43:34.353Z,13.50
2018-05-27T08:46:01.900Z,12.57
2018-05-27T08:48:29.478Z,11.60
2018-05-27T08:50:57.083Z,12.20
2018-05-27T08:53:26.221Z,10.90
2018-05-27T08:55:53.852Z,8.80
2018-05-27T08:58:22.280Z,9.45
2018-05-27T09:00:49.972Z,9.30
2018-05-27T09:03:18.544Z,9.50
2018-05-27T09:05:46.251Z,9.33
2018-05-27T09:08:13.899Z,9.80
2018-05-27T09:10:41.410Z,9.25
2018-05-27T09:13:08.918Z,9.13
2018-05-27T09:15:37.322Z,10.80
2018-05-27T09:18:05.021Z,10.05
2018-05-27T09:20:32.635Z,11.38
2018-05-27T09:23:00.163Z,8.80
2018-05-27T09:25:27.771Z,10.68
2018-05-27T09:27:55.280Z,9.70
2018-05-27T09:30:22.852Z,11.48
2018-05-27T09:32:50.454Z,10.30
2018-05-27T09:35:18.011Z,11.10
2018-05-27T09:37:45.548Z,9.73
2018-05-27T09:40:13.854Z,11.10
2018-05-27T09:42:41.852Z,9.68
2018-05-27T09:45:09.691Z,9.85
2018-05-27T09:47:38.248Z,10.23
2018-05-27T09:50:06.569Z,10.10
2018-05-27T09:52:34.466Z,10.75
2018-05-27T09:55:02.245Z,10.27
2018-05-27T09:57:30.555Z,9.93
2018-05-27T09:59:58.182Z,10.00
2018-05-27T10:02:26.584Z,10.50
2018-05-27T10:04:54.277Z,10.02
2018-05-27T10:07:21.913Z,9.93
2018-05-27T10:09:49.460Z,10.18
2018-05-27T10:12:18.397Z,9.50
2018-05-27T10:14:46.129Z,10.35
2018-05-27T10:17:13.813Z,10.10
2018-05-27T10:19:41.420Z,8.98
2018-05-27T10:22:09.810Z,9.70
2018-05-27T10:24:38.310Z,9.98
2018-05-27T10:27:06.706Z,10.30
2018-05-27T10:29:35.264Z,9.50
2018-05-27T10:32:03.754Z,9.18
2018-05-27T10:34:31.430Z,8.70
2018-05-27T10:36:59.079Z,9.00
2018-05-27T10:39:26.782Z,8.02
2018-05-27T10:41:54.323Z,8.77
2018-05-27T10:44:21.933Z,8.77
2018-05-27T10:46:49.597Z,8.60
2018-05-27T10:49:17.097Z,8.65
2018-05-27T10:51:44.733Z,8.80
2018-05-27T10:54:13.281Z,8.10
2018-05-27T10:56:41.813Z,7.70
2018-05-27T10:59:10.195Z,7.50
2018-05-27T11:01:37.828Z,7.43
2018-05-27T11:04:05.526Z,7.22
2018-05-27T11:06:33.113Z,7.40
2018-05-27T11:09:00.877Z,7.60
2018-05-27T11:11:28.439Z,7.17
2018-05-27T11:13:56.098Z,7.43
2018-05-27T11:16:23.694Z,7.65
2018-05-27T11:18:52.169Z,7.35
2018-05-27T11:21:19.903Z,7.65
2018-05-27T11:23:47.429Z,6.97
2018-05-27T11:26:15.017Z,7.22
2018-05-27T11:28:42.584Z,13.68
2018-05-27T11:31:10.248Z,6.37
2018-05-27T11:33:38.945Z,7.00
2018-05-27T11:36:06.575Z,6.43
2018-05-27T11:38:34.229Z,6.60
2018-05-27T11:41:02.431Z,6.95
2018-05-27T11:43:30.865Z,6.73
2018-05-27T11:45:58.655Z,6.95
2018-05-27T11:48:26.320Z,7.70
2018-05-27T11:50:53.961Z,7.85
2018-05-27T11:53:21.507Z,8.00
2018-05-27T11:55:49.147Z,8.47
2018-05-27T11:58:16.711Z,8.18
2018-05-27T12:00:44.496Z,8.60
2018-05-27T12:03:12.102Z,7.55
2018-05-27T12:05:39.832Z,7.45
2018-05-27T12:08:08.163Z,7.50
2018-05-27T12:10:35.769Z,7.55
2018-05-27T12:13:03.395Z,7.05
2018-05-27T12:15:31.040Z,6.70
2018-05-27T12:17:58.571Z,6.85
2018-05-27T12:20:26.964Z,6.43
2018-05-27T12:22:54.583Z,7.50
2018-05-27T12:25:22.174Z,6.70
2018-05-27T12:27:50.479Z,7.50
2018-05-27T12:30:18.778Z,7.60
2018-05-27T12:32:46.401Z,7.87
2018-05-27T12:35:14.049Z,8.00
2018-05-27T12:37:42.534Z,7.40
2018-05-27T12:40:10.971Z,6.50
2018-05-27T12:42:38.720Z,6.80
2018-05-27T12:45:06.257Z,8.15
2018-05-27T12:47:33.784Z,7.25
2018-05-27T12:50:01.346Z,8.20
2018-05-27T12:52:28.898Z,26.30
2018-05-27T12:54:56.448Z,7.55
2018-05-27T12:57:25.178Z,8.27
2018-05-27T12:59:52.711Z,8.25
2018-05-27T13:02:20.249Z,7.65
2018-05-27T13:04:47.837Z,7.43
2018-05-27T13:07:16.187Z,8.10
2018-05-27T13:09:43.722Z,7.10
2018-05-27T13:12:11.341Z,6.63
2018-05-27T13:14:38.874Z,16.75
2018-05-27T13:17:06.445Z,7.00
2018-05-27T13:19:33.997Z,6.22
2018-05-27T13:22:01.578Z,6.15
2018-05-27T13:24:29.203Z,6.75
2018-05-27T13:26:56.870Z,6.25
2018-05-27T13:29:24.500Z,6.00
2018-05-27T13:31:52.096Z,6.10
2018-05-27T13:34:19.661Z,6.55
2018-05-27T13:36:47.166Z,6.05
2018-05-27T13:39:14.985Z,6.60
2018-05-27T13:41:42.577Z,5.95
2018-05-27T13:44:11.017Z,5.00
2018-05-27T13:46:38.645Z,4.82
2018-05-27T13:49:06.391Z,5.03
2018-05-27T13:51:34.778Z,5.43
2018-05-27T13:54:02.331Z,5.32
2018-05-27T13:56:30.951Z,6.15
2018-05-27T13:58:58.608Z,5.95
2018-05-27T14:01:26.343Z,6.07
2018-05-27T14:03:55.865Z,6.20
2018-05-27T14:06:24.376Z,5.60
2018-05-27T14:08:52.141Z,6.30
2018-05-27T14:11:19.694Z,6.60
2018-05-27T14:13:47.296Z,6.70
2018-05-27T14:16:14.937Z,6.62
2018-05-27T14:18:42.587Z,5.80
2018-05-27T14:21:10.090Z,6.30
2018-05-27T14:23:37.630Z,5.95
2018-05-27T14:26:05.176Z,5.93
2018-05-27T14:28:32.727Z,6.28
2018-05-27T14:31:00.245Z,6.95
2018-05-27T14:33:27.835Z,6.47
2018-05-27T14:35:55.407Z,6.60
2018-05-27T14:38:22.980Z,7.77
2018-05-27T14:40:50.525Z,6.93
2018-05-27T14:43:18.028Z,7.40
2018-05-27T14:45:45.788Z,7.93
2018-05-27T14:48:13.328Z,7.75
2018-05-27T14:50:40.946Z,7.47
2018-05-27T14:53:08.487Z,8.10
2018-05-27T14:55:36.316Z,8.13
2018-05-27T14:58:03.982Z,8.40
2018-05-27T15:00:31.493Z,7.80
2018-05-27T15:02:59.051Z,10.80
2018-05-27T15:05:26.629Z,7.90
2018-05-27T15:07:54.153Z,8.43
2018-05-27T15:10:21.819Z,8.60
2018-05-27T15:12:49.416Z,8.07
2018-05-27T15:15:16.969Z,8.73
2018-05-27T15:17:44.563Z,9.07
2018-05-27T15:20:12.108Z,7.93
2018-05-27T15:22:40.469Z,8.00
2018-05-27T15:25:08.043Z,8.15
2018-05-27T15:27:35.610Z,8.30
2018-05-27T15:30:03.186Z,6.85
2018-05-27T15:32:30.769Z,7.80
2018-05-27T15:34:59.085Z,7.65
2018-05-27T15:37:26.633Z,8.20
2018-05-27T15:39:54.941Z,13.10
2018-05-27T15:42:22.510Z,8.88
2018-05-27T15:44:50.083Z,9.13
2018-05-27T15:47:17.634Z,8.50
2018-05-27T15:49:45.148Z,7.80
2018-05-27T15:52:13.571Z,7.50
2018-05-27T15:54:41.185Z,8.40
2018-05-27T15:57:08.714Z,7.47
2018-05-27T15:59:36.335Z,7.12
2018-05-27T16:02:03.863Z,7.75
2018-05-27T16:04:33.000Z,7.32
2018-05-27T16:07:00.522Z,7.60
2018-05-27T16:09:28.168Z,9.02
2018-05-27T16:11:55.768Z,8.25
2018-05-27T16:14:23.390Z,7.62
2018-05-27T16:16:50.968Z,17.77
2018-05-27T16:19:18.559Z,11.57
2018-05-27T16:21:46.175Z,8.60
2018-05-27T16:24:13.742Z,7.80
2018-05-27T16:26:41.261Z,9.32
2018-05-27T16:29:08.773Z,8.23
2018-05-27T16:31:37.106Z,8.75
2018-05-27T16:34:04.713Z,9.93
2018-05-27T16:36:33.405Z,8.95
2018-05-27T16:39:01.712Z,8.70
2018-05-27T16:41:29.283Z,9.20
2018-05-27T16:43:56.828Z,9.32
2018-05-27T16:46:24.432Z,9.55
2018-05-27T16:48:51.966Z,8.52
2018-05-27T16:51:19.575Z,8.70
2018-05-27T16:53:47.132Z,8.35
2018-05-27T16:56:14.671Z,8.35
2018-05-27T16:58:42.282Z,8.70
2018-05-27T17:01:09.867Z,9.00
2018-05-27T17:03:37.473Z,8.50
2018-05-27T17:06:04.984Z,8.73
2018-05-27T17:08:32.509Z,8.90
2018-05-27T17:11:00.178Z,9.45
2018-05-27T17:13:27.796Z,9.10
2018-05-27T17:15:55.461Z,8.00
2018-05-27T17:18:23.056Z,9.15
2018-05-27T17:20:51.356Z,8.50
2018-05-27T17:23:18.893Z,8.52
2018-05-27T17:25:46.591Z,8.65
2018-05-27T17:28:14.192Z,9.52
2018-05-27T17:30:41.694Z,8.90
2018-05-27T17:33:09.238Z,8.38
2018-05-27T17:35:37.562Z,9.25
2018-05-27T17:38:05.125Z,8.20
2018-05-27T17:40:32.818Z,9.77
2018-05-27T17:43:00.347Z,8.77
2018-05-27T17:45:27.930Z,9.73
2018-05-27T17:47:56.335Z,9.13
2018-05-27T17:50:24.615Z,8.60
2018-05-27T17:52:52.189Z,9.90
2018-05-27T17:55:20.541Z,9.00
2018-05-27T17:57:48.066Z,9.90
2018-05-27T18:00:15.814Z,10.00
2018-05-27T18:02:43.388Z,8.80
2018-05-27T18:05:11.012Z,8.60
2018-05-27T18:07:38.572Z,9.35
2018-05-27T18:10:06.327Z,9.90
2018-05-27T18:12:33.981Z,9.13
2018-05-27T18:15:01.580Z,9.57
2018-05-27T18:17:29.122Z,10.75
2018-05-27T18:19:56.726Z,8.77
2018-05-27T18:22:24.277Z,8.68
2018-05-27T18:24:51.990Z,8.52
2018-05-27T18:27:20.370Z,9.00
2018-05-27T18:29:47.954Z,8.38
2018-05-27T18:32:15.523Z,9.98
2018-05-27T18:34:43.071Z,9.13
2018-05-27T18:37:11.399Z,9.38
2018-05-27T18:39:39.047Z,10.88
2018-05-27T18:42:06.620Z,9.98
2018-05-27T18:44:34.372Z,10.05
2018-05-27T18:47:01.969Z,9.15
2018-05-27T18:49:29.562Z,9.00
2018-05-27T18:51:57.114Z,8.88
2018-05-27T18:54:25.592Z,9.43
2018-05-27T18:56:53.880Z,10.27
2018-05-27T18:59:21.426Z,9.50
2018-05-27T19:01:48.960Z,10.80
2018-05-27T19:04:18.267Z,9.85
2018-05-27T19:06:47.419Z,9.88
2018-05-27T19:09:18.321Z,9.20
2018-05-27T19:11:45.919Z,10.52
2018-05-27T19:14:13.549Z,9.48
2018-05-27T19:16:41.156Z,9.98
2018-05-27T19:19:08.760Z,10.70
2018-05-27T19:21:36.393Z,10.40
2018-05-27T19:24:05.719Z,9.75
2018-05-27T19:26:33.679Z,11.80
2018-05-27T19:29:01.238Z,14.43
2018-05-27T19:31:29.553Z,11.43
2018-05-27T19:33:57.921Z,10.25
2018-05-27T19:36:25.459Z,12.05
2018-05-27T19:38:53.038Z,10.15
2018-05-27T19:41:20.624Z,11.20
2018-05-27T19:43:48.327Z,11.88
2018-05-27T19:46:15.917Z,11.20
2018-05-27T19:48:44.318Z,13.05
2018-05-27T19:51:11.909Z,10.10
2018-05-27T19:53:39.587Z,10.57
2018-05-27T19:56:07.132Z,9.65
2018-05-27T19:58:34.835Z,9.75
2018-05-27T20:01:02.436Z,10.93
2018-05-27T20:03:30.051Z,11.00
2018-05-27T20:05:57.710Z,10.07
2018-05-27T20:08:25.321Z,10.38
2018-05-27T20:10:52.888Z,10.02
2018-05-27T20:13:20.438Z,10.23
2018-05-27T20:15:47.992Z,10.38
2018-05-27T20:18:15.603Z,10.40
2018-05-27T20:20:43.207Z,10.95
2018-05-27T20:23:11.530Z,11.30
2018-05-27T20:25:39.120Z,8.68
2018-05-27T20:28:07.480Z,10.80
2018-05-27T20:30:35.030Z,10.90
2018-05-27T20:33:02.593Z,11.10
2018-05-27T20:35:30.114Z,10.10
2018-05-27T20:37:58.124Z,10.80
2018-05-27T20:40:25.657Z,10.70
2018-05-27T20:42:53.167Z,10.23
2018-05-27T20:45:20.792Z,9.60
2018-05-27T20:47:48.346Z,10.23
2018-05-27T20:50:16.383Z,9.43
2018-05-27T20:52:44.710Z,11.00
2018-05-27T20:55:12.333Z,10.20
2018-05-27T20:57:40.620Z,10.38
2018-05-27T21:00:08.977Z,8.85
2018-05-27T21:02:36.601Z,9.88
2018-05-27T21:05:04.133Z,9.55
2018-05-27T21:07:31.833Z,10.00
2018-05-27T21:09:59.382Z,10.20
2018-05-27T21:12:26.902Z,12.47
2018-05-27T21:14:54.974Z,14.23
2018-05-27T21:17:22.586Z,39.40
2018-05-27T21:19:50.137Z,11.57
2018-05-27T21:22:17.779Z,11.20
2018-05-27T21:24:45.434Z,10.70
2018-05-27T21:29:18.478Z,10.93
2018-05-27T21:31:46.041Z,10.65
2018-05-27T21:34:14.923Z,10.65
2018-05-27T21:36:42.449Z,10.15
2018-05-27T21:39:09.966Z,10.05
2018-05-27T21:41:37.496Z,10.85
2018-05-27T21:44:05.088Z,10.30
2018-05-27T21:46:32.626Z,9.93
2018-05-27T21:49:00.153Z,10.13
2018-05-27T21:51:27.662Z,10.00
2018-05-27T21:53:55.245Z,9.90
2018-05-27T21:56:22.779Z,10.18
2018-05-27T21:58:50.322Z,11.00
2018-05-27T22:01:17.865Z,10.87
2018-05-27T22:03:45.409Z,10.88
2018-05-27T22:06:13.008Z,10.60
2018-05-27T22:08:41.816Z,10.93
2018-05-27T22:11:09.367Z,10.05
2018-05-27T22:13:36.985Z,10.60
2018-05-27T22:16:04.605Z,10.63
2018-05-27T22:18:32.361Z,10.73
2018-05-27T22:21:00.026Z,10.95
2018-05-27T22:23:27.627Z,11.70
2018-05-27T22:25:55.300Z,11.02
2018-05-27T22:28:22.875Z,12.20
2018-05-27T22:30:50.605Z,11.30
2018-05-27T22:33:18.203Z,12.32
2018-05-27T22:35:45.802Z,12.70
2018-05-27T22:38:13.439Z,12.68
2018-05-27T22:40:41.574Z,11.40
2018-05-27T22:43:09.311Z,12.52
2018-05-27T22:45:36.877Z,12.35
2018-05-27T22:48:05.292Z,11.25
2018-05-27T22:50:33.382Z,13.00
2018-05-27T22:53:01.043Z,12.10
2018-05-27T22:55:28.596Z,12.50
2018-05-27T22:57:57.027Z,12.48
2018-05-27T23:00:24.854Z,13.52
2018-05-27T23:02:52.659Z,12.88
2018-05-27T23:05:20.297Z,12.40
2018-05-27T23:07:47.809Z,12.57
2018-05-27T23:10:15.969Z,13.05
2018-05-27T23:12:44.314Z,13.05
2018-05-27T23:15:11.946Z,13.25
2018-05-27T23:17:39.517Z,12.82
2018-05-27T23:20:07.163Z,12.48
2018-05-27T23:22:34.743Z,12.98
2018-05-27T23:25:02.280Z,12.80
2018-05-27T23:27:31.230Z,13.45
2018-05-27T23:29:59.449Z,13.95
2018-05-27T23:32:27.008Z,13.65
2018-05-27T23:34:54.640Z,13.45
2018-05-27T23:37:22.958Z,13.70
2018-05-27T23:39:51.694Z,13.75
2018-05-27T23:42:19.271Z,14.43
2018-05-27T23:44:46.927Z,13.40
2018-05-27T23:47:15.590Z,13.70
2018-05-27T23:49:43.206Z,14.50
2018-05-27T23:52:10.762Z,13.98
2018-05-27T23:54:38.330Z,13.52
2018-05-27T23:57:07.220Z,14.55
2018-05-27T23:59:35.595Z,13.90
